sensor_id;sensor_type;location;lat;lon;timestamp;P1;durP1;ratioP1;P2;durP2;ratioP2
9108;SDS011;4590;51.462;6.692;2022-07-04T00:00:43;1.17;;;0.60;;
9108;SDS011;4590;51.462;6.692;2022-07-04T00:03:09;1.67;;;0.67;;
9108;SDS011;4590;51.462;6.692;2022-07-04T00:05:34;3.70;;;0.60;;
9108;SDS011;4590;51.462;6.692;2022-07-04T00:07:59;2.60;;;0.67;;
9108;SDS011;4590;51.462;6.692;2022-07-04T00:10:24;1.47;;;0.53;;
9108;SDS011;4590;51.462;6.692;2022-07-04T00:12:50;1.17;;;0.67;;
9108;SDS011;4590;51.462;6.692;2022-07-04T00:15:15;2.28;;;0.85;;
9108;SDS011;4590;51.462;6.692;2022-07-04T00:17:41;1.52;;;0.60;;
9108;SDS011;4590;51.462;6.692;2022-07-04T00:20:07;1.97;;;0.90;;
9108;SDS011;4590;51.462;6.692;2022-07-04T00:22:34;1.25;;;0.82;;
9108;SDS011;4590;51.462;6.692;2022-07-04T00:25:00;2.42;;;0.80;;
9108;SDS011;4590;51.462;6.692;2022-07-04T00:27:25;2.10;;;0.60;;
9108;SDS011;4590;51.462;6.692;2022-07-04T00:29:51;2.55;;;0.90;;
9108;SDS011;4590;51.462;6.692;2022-07-04T00:32:16;2.17;;;0.60;;
9108;SDS011;4590;51.462;6.692;2022-07-04T00:34:42;3.92;;;0.90;;
9108;SDS011;4590;51.462;6.692;2022-07-04T00:37:07;2.43;;;0.73;;
9108;SDS011;4590;51.462;6.692;2022-07-04T00:39:33;2.33;;;0.90;;
9108;SDS011;4590;51.462;6.692;2022-07-04T00:41:58;2.33;;;1.02;;
9108;SDS011;4590;51.462;6.692;2022-07-04T00:44:24;1.90;;;0.70;;
9108;SDS011;4590;51.462;6.692;2022-07-04T00:46:49;2.40;;;0.83;;
9108;SDS011;4590;51.462;6.692;2022-07-04T00:49:15;3.08;;;1.10;;
9108;SDS011;4590;51.462;6.692;2022-07-04T00:51:42;1.95;;;0.73;;
9108;SDS011;4590;51.462;6.692;2022-07-04T00:54:10;2.67;;;0.90;;
9108;SDS011;4590;51.462;6.692;2022-07-04T00:56:38;2.17;;;1.15;;
9108;SDS011;4590;51.462;6.692;2022-07-04T00:59:05;3.70;;;1.00;;
9108;SDS011;4590;51.462;6.692;2022-07-04T01:01:31;3.20;;;1.10;;
9108;SDS011;4590;51.462;6.692;2022-07-04T01:03:57;2.97;;;1.10;;
9108;SDS011;4590;51.462;6.692;2022-07-04T01:06:23;2.45;;;1.13;;
9108;SDS011;4590;51.462;6.692;2022-07-04T01:08:48;5.35;;;1.10;;
9108;SDS011;4590;51.462;6.692;2022-07-04T01:11:14;2.53;;;1.17;;
9108;SDS011;4590;51.462;6.692;2022-07-04T01:13:40;3.50;;;1.20;;
9108;SDS011;4590;51.462;6.692;2022-07-04T01:16:07;3.20;;;1.10;;
9108;SDS011;4590;51.462;6.692;2022-07-04T01:20:58;3.72;;;1.10;;
9108;SDS011;4590;51.462;6.692;2022-07-04T01:23:23;2.78;;;1.20;;
9108;SDS011;4590;51.462;6.692;2022-07-04T01:25:48;2.20;;;1.20;;
9108;SDS011;4590;51.462;6.692;2022-07-04T01:30:40;1.85;;;1.10;;
9108;SDS011;4590;51.462;6.692;2022-07-04T01:33:05;1.53;;;0.97;;
9108;SDS011;4590;51.462;6.692;2022-07-04T01:35:31;2.27;;;1.27;;
9108;SDS011;4590;51.462;6.692;2022-07-04T01:37:56;1.20;;;0.90;;
9108;SDS011;4590;51.462;6.692;2022-07-04T01:40:22;3.00;;;1.10;;
9108;SDS011;4590;51.462;6.692;2022-07-04T01:42:48;2.72;;;1.38;;
9108;SDS011;4590;51.462;6.692;2022-07-04T01:45:13;2.25;;;1.27;;
9108;SDS011;4590;51.462;6.692;2022-07-04T01:47:39;1.40;;;1.00;;
9108;SDS011;4590;51.462;6.692;2022-07-04T01:50:06;2.72;;;1.20;;
9108;SDS011;4590;51.462;6.692;2022-07-04T01:52:34;2.63;;;1.05;;
9108;SDS011;4590;51.462;6.692;2022-07-04T01:55:00;2.72;;;1.30;;
9108;SDS011;4590;51.462;6.692;2022-07-04T01:57:25;2.33;;;1.20;;
9108;SDS011;4590;51.462;6.692;2022-07-04T01:59:50;2.20;;;1.17;;
9108;SDS011;4590;51.462;6.692;2022-07-04T02:02:35;4.07;;;1.50;;
9108;SDS011;4590;51.462;6.692;2022-07-04T02:07:26;3.15;;;1.85;;
9108;SDS011;4590;51.462;6.692;2022-07-04T02:09:51;1.77;;;1.20;;
9108;SDS011;4590;51.462;6.692;2022-07-04T02:12:17;2.37;;;1.37;;
9108;SDS011;4590;51.462;6.692;2022-07-04T02:15:00;2.53;;;1.38;;
9108;SDS011;4590;51.462;6.692;2022-07-04T02:17:26;2.67;;;1.33;;
9108;SDS011;4590;51.462;6.692;2022-07-04T02:19:51;2.97;;;1.42;;
9108;SDS011;4590;51.462;6.692;2022-07-04T02:22:17;3.10;;;1.77;;
9108;SDS011;4590;51.462;6.692;2022-07-04T02:24:42;4.23;;;1.50;;
9108;SDS011;4590;51.462;6.692;2022-07-04T02:27:07;3.50;;;1.43;;
9108;SDS011;4590;51.462;6.692;2022-07-04T02:29:33;2.38;;;1.27;;
9108;SDS011;4590;51.462;6.692;2022-07-04T02:31:59;2.60;;;1.35;;
9108;SDS011;4590;51.462;6.692;2022-07-04T02:34:24;2.53;;;1.47;;
9108;SDS011;4590;51.462;6.692;2022-07-04T02:36:50;3.20;;;1.50;;
9108;SDS011;4590;51.462;6.692;2022-07-04T02:39:15;3.13;;;1.30;;
9108;SDS011;4590;51.462;6.692;2022-07-04T02:41:41;3.50;;;1.27;;
9108;SDS011;4590;51.462;6.692;2022-07-04T02:44:06;2.13;;;1.30;;
9108;SDS011;4590;51.462;6.692;2022-07-04T02:46:32;2.30;;;1.25;;
9108;SDS011;4590;51.462;6.692;2022-07-04T02:48:58;3.13;;;1.50;;
9108;SDS011;4590;51.462;6.692;2022-07-04T02:51:24;3.53;;;1.60;;
9108;SDS011;4590;51.462;6.692;2022-07-04T02:53:49;4.40;;;1.70;;
9108;SDS011;4590;51.462;6.692;2022-07-04T02:56:15;2.10;;;1.50;;
9108;SDS011;4590;51.462;6.692;2022-07-04T02:58:40;2.63;;;1.43;;
9108;SDS011;4590;51.462;6.692;2022-07-04T03:01:05;2.60;;;1.57;;
9108;SDS011;4590;51.462;6.692;2022-07-04T03:03:31;2.38;;;1.30;;
9108;SDS011;4590;51.462;6.692;2022-07-04T03:05:56;3.37;;;1.50;;
9108;SDS011;4590;51.462;6.692;2022-07-04T03:08:22;1.80;;;1.20;;
9108;SDS011;4590;51.462;6.692;2022-07-04T03:10:50;2.70;;;1.33;;
9108;SDS011;4590;51.462;6.692;2022-07-04T03:13:16;3.70;;;1.80;;
9108;SDS011;4590;51.462;6.692;2022-07-04T03:15:41;1.90;;;1.30;;
9108;SDS011;4590;51.462;6.692;2022-07-04T03:18:07;3.57;;;1.90;;
9108;SDS011;4590;51.462;6.692;2022-07-04T03:20:32;3.97;;;1.80;;
9108;SDS011;4590;51.462;6.692;2022-07-04T03:22:57;3.53;;;1.67;;
9108;SDS011;4590;51.462;6.692;2022-07-04T03:25:23;2.80;;;1.73;;
9108;SDS011;4590;51.462;6.692;2022-07-04T03:27:48;2.77;;;1.90;;
9108;SDS011;4590;51.462;6.692;2022-07-04T03:30:13;3.07;;;1.70;;
9108;SDS011;4590;51.462;6.692;2022-07-04T03:32:39;3.33;;;1.87;;
9108;SDS011;4590;51.462;6.692;2022-07-04T03:35:04;4.47;;;2.30;;
9108;SDS011;4590;51.462;6.692;2022-07-04T03:37:30;2.33;;;1.70;;
9108;SDS011;4590;51.462;6.692;2022-07-04T03:39:55;3.10;;;1.90;;
9108;SDS011;4590;51.462;6.692;2022-07-04T03:42:20;4.20;;;1.97;;
9108;SDS011;4590;51.462;6.692;2022-07-04T03:44:46;3.67;;;1.77;;
9108;SDS011;4590;51.462;6.692;2022-07-04T03:47:11;3.77;;;2.30;;
9108;SDS011;4590;51.462;6.692;2022-07-04T03:49:36;2.33;;;1.93;;
9108;SDS011;4590;51.462;6.692;2022-07-04T03:52:02;3.73;;;2.07;;
9108;SDS011;4590;51.462;6.692;2022-07-04T03:54:27;3.08;;;1.98;;
9108;SDS011;4590;51.462;6.692;2022-07-04T03:56:53;3.58;;;2.15;;
9108;SDS011;4590;51.462;6.692;2022-07-04T03:59:19;4.88;;;2.03;;
9108;SDS011;4590;51.462;6.692;2022-07-04T04:01:44;4.30;;;2.30;;
9108;SDS011;4590;51.462;6.692;2022-07-04T04:04:10;3.22;;;2.25;;
9108;SDS011;4590;51.462;6.692;2022-07-04T04:06:54;2.85;;;2.10;;
9108;SDS011;4590;51.462;6.692;2022-07-04T04:09:20;3.33;;;2.33;;
9108;SDS011;4590;51.462;6.692;2022-07-04T04:11:45;3.72;;;2.28;;
9108;SDS011;4590;51.462;6.692;2022-07-04T04:14:11;3.80;;;2.40;;
9108;SDS011;4590;51.462;6.692;2022-07-04T04:16:37;4.68;;;2.67;;
9108;SDS011;4590;51.462;6.692;2022-07-04T04:19:02;3.13;;;2.15;;
9108;SDS011;4590;51.462;6.692;2022-07-04T04:23:54;3.47;;;2.17;;
9108;SDS011;4590;51.462;6.692;2022-07-04T04:26:19;2.63;;;2.20;;
9108;SDS011;4590;51.462;6.692;2022-07-04T04:28:44;3.47;;;2.47;;
9108;SDS011;4590;51.462;6.692;2022-07-04T04:31:10;4.13;;;2.67;;
9108;SDS011;4590;51.462;6.692;2022-07-04T04:33:35;6.93;;;2.83;;
9108;SDS011;4590;51.462;6.692;2022-07-04T04:36:01;4.53;;;2.83;;
9108;SDS011;4590;51.462;6.692;2022-07-04T04:38:26;7.13;;;3.50;;
9108;SDS011;4590;51.462;6.692;2022-07-04T04:40:52;6.10;;;2.43;;
9108;SDS011;4590;51.462;6.692;2022-07-04T04:43:17;5.13;;;2.73;;
9108;SDS011;4590;51.462;6.692;2022-07-04T04:45:42;5.27;;;2.90;;
9108;SDS011;4590;51.462;6.692;2022-07-04T04:48:08;6.43;;;3.20;;
9108;SDS011;4590;51.462;6.692;2022-07-04T04:50:33;4.43;;;3.07;;
9108;SDS011;4590;51.462;6.692;2022-07-04T04:52:59;4.53;;;2.80;;
9108;SDS011;4590;51.462;6.692;2022-07-04T04:55:24;4.70;;;3.20;;
9108;SDS011;4590;51.462;6.692;2022-07-04T04:57:49;4.40;;;2.30;;
9108;SDS011;4590;51.462;6.692;2022-07-04T05:00:15;5.50;;;2.47;;
9108;SDS011;4590;51.462;6.692;2022-07-04T05:02:40;5.03;;;2.47;;
9108;SDS011;4590;51.462;6.692;2022-07-04T05:05:05;4.43;;;2.67;;
9108;SDS011;4590;51.462;6.692;2022-07-04T05:07:31;5.45;;;2.83;;
9108;SDS011;4590;51.462;6.692;2022-07-04T05:09:57;5.97;;;3.10;;
9108;SDS011;4590;51.462;6.692;2022-07-04T05:12:24;6.45;;;3.40;;
9108;SDS011;4590;51.462;6.692;2022-07-04T05:14:50;4.57;;;2.83;;
9108;SDS011;4590;51.462;6.692;2022-07-04T05:17:15;4.57;;;3.10;;
9108;SDS011;4590;51.462;6.692;2022-07-04T05:19:40;4.80;;;2.90;;
9108;SDS011;4590;51.462;6.692;2022-07-04T05:22:06;5.07;;;2.53;;
9108;SDS011;4590;51.462;6.692;2022-07-04T05:24:31;5.33;;;3.07;;
9108;SDS011;4590;51.462;6.692;2022-07-04T05:26:56;5.27;;;2.50;;
9108;SDS011;4590;51.462;6.692;2022-07-04T05:29:21;5.10;;;2.53;;
9108;SDS011;4590;51.462;6.692;2022-07-04T05:31:47;6.80;;;2.67;;
9108;SDS011;4590;51.462;6.692;2022-07-04T05:34:12;5.43;;;2.40;;
9108;SDS011;4590;51.462;6.692;2022-07-04T05:36:37;4.45;;;2.38;;
9108;SDS011;4590;51.462;6.692;2022-07-04T05:39:02;5.50;;;2.60;;
9108;SDS011;4590;51.462;6.692;2022-07-04T05:41:28;3.97;;;2.27;;
9108;SDS011;4590;51.462;6.692;2022-07-04T05:43:53;5.67;;;2.67;;
9108;SDS011;4590;51.462;6.692;2022-07-04T05:46:19;6.13;;;3.03;;
9108;SDS011;4590;51.462;6.692;2022-07-04T05:48:44;7.22;;;2.97;;
9108;SDS011;4590;51.462;6.692;2022-07-04T05:53:34;6.55;;;2.40;;
9108;SDS011;4590;51.462;6.692;2022-07-04T05:58:25;5.43;;;2.13;;
9108;SDS011;4590;51.462;6.692;2022-07-04T06:00:51;3.75;;;2.03;;
9108;SDS011;4590;51.462;6.692;2022-07-04T06:05:41;4.23;;;2.00;;
9108;SDS011;4590;51.462;6.692;2022-07-04T06:10:32;4.47;;;1.60;;
9108;SDS011;4590;51.462;6.692;2022-07-04T06:12:58;4.13;;;1.75;;
9108;SDS011;4590;51.462;6.692;2022-07-04T06:17:48;3.37;;;1.73;;
9108;SDS011;4590;51.462;6.692;2022-07-04T06:22:41;3.88;;;1.60;;
9108;SDS011;4590;51.462;6.692;2022-07-04T06:25:11;2.72;;;1.55;;
9108;SDS011;4590;51.462;6.692;2022-07-04T06:27:37;3.33;;;1.35;;
9108;SDS011;4590;51.462;6.692;2022-07-04T06:30:03;4.38;;;1.60;;
9108;SDS011;4590;51.462;6.692;2022-07-04T06:32:29;4.28;;;1.50;;
9108;SDS011;4590;51.462;6.692;2022-07-04T06:34:55;2.53;;;1.27;;
9108;SDS011;4590;51.462;6.692;2022-07-04T06:37:38;3.42;;;1.15;;
9108;SDS011;4590;51.462;6.692;2022-07-04T06:40:04;3.28;;;1.50;;
9108;SDS011;4590;51.462;6.692;2022-07-04T06:42:30;5.63;;;1.40;;
9108;SDS011;4590;51.462;6.692;2022-07-04T06:44:55;4.47;;;1.10;;
9108;SDS011;4590;51.462;6.692;2022-07-04T06:47:20;2.60;;;0.98;;
9108;SDS011;4590;51.462;6.692;2022-07-04T06:49:45;2.47;;;0.95;;
9108;SDS011;4590;51.462;6.692;2022-07-04T06:52:11;1.45;;;0.80;;
9108;SDS011;4590;51.462;6.692;2022-07-04T06:54:36;3.70;;;1.15;;
9108;SDS011;4590;51.462;6.692;2022-07-04T06:57:01;2.03;;;0.82;;
9108;SDS011;4590;51.462;6.692;2022-07-04T06:59:27;2.70;;;1.00;;
9108;SDS011;4590;51.462;6.692;2022-07-04T07:01:52;5.65;;;1.00;;
9108;SDS011;4590;51.462;6.692;2022-07-04T07:04:17;2.67;;;0.80;;
9108;SDS011;4590;51.462;6.692;2022-07-04T07:06:42;2.67;;;1.00;;
9108;SDS011;4590;51.462;6.692;2022-07-04T07:09:08;2.03;;;0.60;;
9108;SDS011;4590;51.462;6.692;2022-07-04T07:11:33;2.50;;;0.60;;
9108;SDS011;4590;51.462;6.692;2022-07-04T07:13:59;2.58;;;0.57;;
9108;SDS011;4590;51.462;6.692;2022-07-04T07:16:25;2.17;;;0.60;;
9108;SDS011;4590;51.462;6.692;2022-07-04T07:18:50;1.45;;;0.60;;
9108;SDS011;4590;51.462;6.692;2022-07-04T07:21:16;1.40;;;0.50;;
9108;SDS011;4590;51.462;6.692;2022-07-04T07:23:41;2.08;;;0.65;;
9108;SDS011;4590;51.462;6.692;2022-07-04T07:26:07;3.83;;;0.90;;
9108;SDS011;4590;51.462;6.692;2022-07-04T07:28:33;2.00;;;0.55;;
9108;SDS011;4590;51.462;6.692;2022-07-04T07:30:59;1.35;;;0.50;;
9108;SDS011;4590;51.462;6.692;2022-07-04T07:33:25;1.50;;;0.40;;
9108;SDS011;4590;51.462;6.692;2022-07-04T07:35:51;1.63;;;0.40;;
9108;SDS011;4590;51.462;6.692;2022-07-04T07:38:16;1.90;;;0.50;;
9108;SDS011;4590;51.462;6.692;2022-07-04T07:40:41;0.70;;;0.35;;
9108;SDS011;4590;51.462;6.692;2022-07-04T07:43:07;2.40;;;0.85;;
9108;SDS011;4590;51.462;6.692;2022-07-04T07:45:33;1.20;;;0.40;;
9108;SDS011;4590;51.462;6.692;2022-07-04T07:47:58;0.95;;;0.47;;
9108;SDS011;4590;51.462;6.692;2022-07-04T07:50:23;1.33;;;0.35;;
9108;SDS011;4590;51.462;6.692;2022-07-04T07:52:49;2.30;;;0.47;;
9108;SDS011;4590;51.462;6.692;2022-07-04T07:55:14;3.47;;;0.50;;
9108;SDS011;4590;51.462;6.692;2022-07-04T07:57:39;1.98;;;0.80;;
9108;SDS011;4590;51.462;6.692;2022-07-04T08:00:05;1.90;;;0.50;;
9108;SDS011;4590;51.462;6.692;2022-07-04T08:02:30;2.17;;;0.50;;
9108;SDS011;4590;51.462;6.692;2022-07-04T08:05:15;1.65;;;0.45;;
9108;SDS011;4590;51.462;6.692;2022-07-04T08:07:40;1.80;;;0.57;;
9108;SDS011;4590;51.462;6.692;2022-07-04T08:10:06;2.92;;;0.50;;
9108;SDS011;4590;51.462;6.692;2022-07-04T08:12:32;1.90;;;0.57;;
9108;SDS011;4590;51.462;6.692;2022-07-04T08:14:58;2.85;;;0.68;;
9108;SDS011;4590;51.462;6.692;2022-07-04T08:17:23;2.78;;;0.60;;
9108;SDS011;4590;51.462;6.692;2022-07-04T08:19:48;2.92;;;0.63;;
9108;SDS011;4590;51.462;6.692;2022-07-04T08:22:15;0.57;;;0.30;;
9108;SDS011;4590;51.462;6.692;2022-07-04T08:24:40;1.48;;;0.50;;
9108;SDS011;4590;51.462;6.692;2022-07-04T08:27:05;2.03;;;0.40;;
9108;SDS011;4590;51.462;6.692;2022-07-04T08:29:30;1.33;;;0.40;;
9108;SDS011;4590;51.462;6.692;2022-07-04T08:31:57;1.08;;;0.30;;
9108;SDS011;4590;51.462;6.692;2022-07-04T08:34:22;2.38;;;0.55;;
9108;SDS011;4590;51.462;6.692;2022-07-04T08:36:48;1.45;;;0.30;;
9108;SDS011;4590;51.462;6.692;2022-07-04T08:39:13;0.90;;;0.30;;
9108;SDS011;4590;51.462;6.692;2022-07-04T08:41:39;1.60;;;0.50;;
9108;SDS011;4590;51.462;6.692;2022-07-04T08:44:07;1.42;;;0.50;;
9108;SDS011;4590;51.462;6.692;2022-07-04T08:46:35;2.58;;;0.50;;
9108;SDS011;4590;51.462;6.692;2022-07-04T08:49:09;2.55;;;0.57;;
9108;SDS011;4590;51.462;6.692;2022-07-04T08:51:47;2.30;;;0.40;;
9108;SDS011;4590;51.462;6.692;2022-07-04T08:54:17;3.55;;;0.55;;
9108;SDS011;4590;51.462;6.692;2022-07-04T08:57:02;3.08;;;0.57;;
9108;SDS011;4590;51.462;6.692;2022-07-04T08:59:46;1.63;;;0.40;;
9108;SDS011;4590;51.462;6.692;2022-07-04T09:02:15;2.95;;;0.38;;
9108;SDS011;4590;51.462;6.692;2022-07-04T09:04:42;1.98;;;0.45;;
9108;SDS011;4590;51.462;6.692;2022-07-04T09:07:10;2.90;;;0.52;;
9108;SDS011;4590;51.462;6.692;2022-07-04T09:09:37;2.03;;;0.43;;
9108;SDS011;4590;51.462;6.692;2022-07-04T09:12:03;2.33;;;0.50;;
9108;SDS011;4590;51.462;6.692;2022-07-04T09:14:29;1.80;;;0.60;;
9108;SDS011;4590;51.462;6.692;2022-07-04T09:16:55;2.70;;;0.70;;
9108;SDS011;4590;51.462;6.692;2022-07-04T09:19:22;1.38;;;0.40;;
9108;SDS011;4590;51.462;6.692;2022-07-04T09:21:48;2.35;;;0.70;;
9108;SDS011;4590;51.462;6.692;2022-07-04T09:24:14;1.23;;;0.30;;
9108;SDS011;4590;51.462;6.692;2022-07-04T09:26:40;1.42;;;0.30;;
9108;SDS011;4590;51.462;6.692;2022-07-04T09:29:09;2.53;;;0.30;;
9108;SDS011;4590;51.462;6.692;2022-07-04T09:31:34;1.10;;;0.40;;
9108;SDS011;4590;51.462;6.692;2022-07-04T09:34:03;1.23;;;0.57;;
9108;SDS011;4590;51.462;6.692;2022-07-04T09:36:34;1.95;;;0.50;;
9108;SDS011;4590;51.462;6.692;2022-07-04T09:39:07;1.10;;;0.32;;
9108;SDS011;4590;51.462;6.692;2022-07-04T09:44:23;2.08;;;0.43;;
9108;SDS011;4590;51.462;6.692;2022-07-04T09:46:49;3.17;;;1.05;;
9108;SDS011;4590;51.462;6.692;2022-07-04T09:49:15;1.90;;;0.52;;
9108;SDS011;4590;51.462;6.692;2022-07-04T09:51:45;1.42;;;0.43;;
9108;SDS011;4590;51.462;6.692;2022-07-04T09:56:53;2.30;;;0.50;;
9108;SDS011;4590;51.462;6.692;2022-07-04T09:59:21;2.35;;;0.60;;
9108;SDS011;4590;51.462;6.692;2022-07-04T10:01:47;1.75;;;0.50;;
9108;SDS011;4590;51.462;6.692;2022-07-04T10:04:13;1.42;;;0.40;;
9108;SDS011;4590;51.462;6.692;2022-07-04T10:06:40;1.70;;;0.50;;
9108;SDS011;4590;51.462;6.692;2022-07-04T10:09:07;3.97;;;0.73;;
9108;SDS011;4590;51.462;6.692;2022-07-04T10:11:40;1.63;;;0.47;;
9108;SDS011;4590;51.462;6.692;2022-07-04T10:14:07;1.67;;;0.60;;
9108;SDS011;4590;51.462;6.692;2022-07-04T10:16:34;3.13;;;0.40;;
9108;SDS011;4590;51.462;6.692;2022-07-04T10:19:00;1.73;;;0.50;;
9108;SDS011;4590;51.462;6.692;2022-07-04T10:21:26;3.10;;;0.40;;
9108;SDS011;4590;51.462;6.692;2022-07-04T10:23:52;1.40;;;0.40;;
9108;SDS011;4590;51.462;6.692;2022-07-04T10:26:18;1.55;;;0.22;;
9108;SDS011;4590;51.462;6.692;2022-07-04T10:28:45;2.00;;;0.40;;
9108;SDS011;4590;51.462;6.692;2022-07-04T10:31:12;3.38;;;0.45;;
9108;SDS011;4590;51.462;6.692;2022-07-04T10:33:39;1.08;;;0.30;;
9108;SDS011;4590;51.462;6.692;2022-07-04T10:36:13;1.70;;;0.40;;
9108;SDS011;4590;51.462;6.692;2022-07-04T10:38:59;2.03;;;0.50;;
9108;SDS011;4590;51.462;6.692;2022-07-04T10:41:26;2.15;;;0.55;;
9108;SDS011;4590;51.462;6.692;2022-07-04T10:43:55;3.83;;;0.60;;
9108;SDS011;4590;51.462;6.692;2022-07-04T10:46:26;0.85;;;0.30;;
9108;SDS011;4590;51.462;6.692;2022-07-04T10:54:05;1.95;;;0.60;;
9108;SDS011;4590;51.462;6.692;2022-07-04T10:59:11;2.55;;;0.50;;
9108;SDS011;4590;51.462;6.692;2022-07-04T11:20:22;0.60;;;0.30;;
9108;SDS011;4590;51.462;6.692;2022-07-04T11:22:48;1.05;;;0.40;;
9108;SDS011;4590;51.462;6.692;2022-07-04T11:25:14;1.10;;;0.30;;
9108;SDS011;4590;51.462;6.692;2022-07-04T11:27:40;1.20;;;0.50;;
9108;SDS011;4590;51.462;6.692;2022-07-04T11:30:06;1.45;;;0.40;;
9108;SDS011;4590;51.462;6.692;2022-07-04T11:32:34;2.17;;;0.30;;
9108;SDS011;4590;51.462;6.692;2022-07-04T11:35:00;1.83;;;0.50;;
9108;SDS011;4590;51.462;6.692;2022-07-04T11:37:28;1.20;;;0.40;;
9108;SDS011;4590;51.462;6.692;2022-07-04T11:39:54;1.20;;;0.30;;
9108;SDS011;4590;51.462;6.692;2022-07-04T11:45:24;1.90;;;0.80;;
9108;SDS011;4590;51.462;6.692;2022-07-04T11:47:49;1.35;;;0.40;;
9108;SDS011;4590;51.462;6.692;2022-07-04T11:50:15;1.50;;;0.32;;
9108;SDS011;4590;51.462;6.692;2022-07-04T11:55:12;1.58;;;0.45;;
9108;SDS011;4590;51.462;6.692;2022-07-04T11:57:49;1.67;;;0.50;;
9108;SDS011;4590;51.462;6.692;2022-07-04T12:00:18;1.00;;;0.40;;
9108;SDS011;4590;51.462;6.692;2022-07-04T12:02:46;1.23;;;0.40;;
9108;SDS011;4590;51.462;6.692;2022-07-04T12:05:14;1.65;;;0.38;;
9108;SDS011;4590;51.462;6.692;2022-07-04T12:07:41;1.38;;;0.47;;
9108;SDS011;4590;51.462;6.692;2022-07-04T12:10:12;3.03;;;0.50;;
9108;SDS011;4590;51.462;6.692;2022-07-04T12:15:25;1.33;;;0.50;;
9108;SDS011;4590;51.462;6.692;2022-07-04T12:18:01;1.83;;;0.50;;
9108;SDS011;4590;51.462;6.692;2022-07-04T12:20:27;2.33;;;0.52;;
9108;SDS011;4590;51.462;6.692;2022-07-04T12:22:57;2.67;;;0.40;;
9108;SDS011;4590;51.462;6.692;2022-07-04T12:25:27;2.20;;;0.40;;
9108;SDS011;4590;51.462;6.692;2022-07-04T12:27:58;1.20;;;0.50;;
9108;SDS011;4590;51.462;6.692;2022-07-04T12:30:28;1.45;;;0.47;;
9108;SDS011;4590;51.462;6.692;2022-07-04T12:33:02;2.83;;;0.50;;
9108;SDS011;4590;51.462;6.692;2022-07-04T12:38:10;2.10;;;0.50;;
9108;SDS011;4590;51.462;6.692;2022-07-04T12:40:37;0.88;;;0.40;;
9108;SDS011;4590;51.462;6.692;2022-07-04T12:43:25;2.00;;;0.57;;
9108;SDS011;4590;51.462;6.692;2022-07-04T12:46:12;2.28;;;0.50;;
9108;SDS011;4590;51.462;6.692;2022-07-04T12:48:58;1.55;;;0.57;;
9108;SDS011;4590;51.462;6.692;2022-07-04T12:51:27;1.27;;;0.50;;
9108;SDS011;4590;51.462;6.692;2022-07-04T12:53:57;1.95;;;0.43;;
9108;SDS011;4590;51.462;6.692;2022-07-04T12:56:29;1.27;;;0.50;;
9108;SDS011;4590;51.462;6.692;2022-07-04T12:59:03;1.27;;;0.40;;
9108;SDS011;4590;51.462;6.692;2022-07-04T13:01:30;3.05;;;0.65;;
9108;SDS011;4590;51.462;6.692;2022-07-04T13:03:55;3.63;;;0.50;;
9108;SDS011;4590;51.462;6.692;2022-07-04T13:06:21;3.13;;;0.70;;
9108;SDS011;4590;51.462;6.692;2022-07-04T13:08:47;1.75;;;0.60;;
9108;SDS011;4590;51.462;6.692;2022-07-04T13:11:12;3.38;;;0.65;;
9108;SDS011;4590;51.462;6.692;2022-07-04T13:13:56;1.30;;;0.45;;
9108;SDS011;4590;51.462;6.692;2022-07-04T13:16:21;1.30;;;0.55;;
9108;SDS011;4590;51.462;6.692;2022-07-04T13:18:47;2.25;;;0.57;;
9108;SDS011;4590;51.462;6.692;2022-07-04T13:21:12;0.90;;;0.50;;
9108;SDS011;4590;51.462;6.692;2022-07-04T13:23:37;2.83;;;0.50;;
9108;SDS011;4590;51.462;6.692;2022-07-04T13:26:03;3.85;;;0.50;;
9108;SDS011;4590;51.462;6.692;2022-07-04T13:28:28;2.92;;;0.70;;
9108;SDS011;4590;51.462;6.692;2022-07-04T13:30:54;2.05;;;0.60;;
9108;SDS011;4590;51.462;6.692;2022-07-04T13:33:19;1.80;;;0.70;;
9108;SDS011;4590;51.462;6.692;2022-07-04T13:35:44;2.58;;;0.63;;
9108;SDS011;4590;51.462;6.692;2022-07-04T13:38:10;2.85;;;0.80;;
9108;SDS011;4590;51.462;6.692;2022-07-04T13:40:35;1.27;;;0.52;;
9108;SDS011;4590;51.462;6.692;2022-07-04T13:43:00;1.60;;;0.60;;
9108;SDS011;4590;51.462;6.692;2022-07-04T13:45:26;1.42;;;0.57;;
9108;SDS011;4590;51.462;6.692;2022-07-04T13:47:52;1.05;;;0.45;;
9108;SDS011;4590;51.462;6.692;2022-07-04T13:50:19;2.90;;;0.60;;
9108;SDS011;4590;51.462;6.692;2022-07-04T13:52:45;1.95;;;0.60;;
9108;SDS011;4590;51.462;6.692;2022-07-04T13:55:10;1.73;;;0.47;;
9108;SDS011;4590;51.462;6.692;2022-07-04T13:57:36;1.55;;;0.47;;
9108;SDS011;4590;51.462;6.692;2022-07-04T14:00:03;1.73;;;0.50;;
9108;SDS011;4590;51.462;6.692;2022-07-04T14:02:30;0.88;;;0.40;;
9108;SDS011;4590;51.462;6.692;2022-07-04T14:04:55;2.33;;;0.50;;
9108;SDS011;4590;51.462;6.692;2022-07-04T14:07:21;4.18;;;0.70;;
9108;SDS011;4590;51.462;6.692;2022-07-04T14:09:47;1.38;;;0.50;;
9108;SDS011;4590;51.462;6.692;2022-07-04T14:12:12;1.05;;;0.45;;
9108;SDS011;4590;51.462;6.692;2022-07-04T14:14:37;2.05;;;0.50;;
9108;SDS011;4590;51.462;6.692;2022-07-04T14:17:03;1.55;;;0.52;;
9108;SDS011;4590;51.462;6.692;2022-07-04T14:19:28;1.00;;;0.50;;
9108;SDS011;4590;51.462;6.692;2022-07-04T14:21:53;2.95;;;0.60;;
9108;SDS011;4590;51.462;6.692;2022-07-04T14:24:19;3.05;;;0.60;;
9108;SDS011;4590;51.462;6.692;2022-07-04T14:26:44;1.88;;;0.50;;
9108;SDS011;4590;51.462;6.692;2022-07-04T14:29:09;1.00;;;0.40;;
9108;SDS011;4590;51.462;6.692;2022-07-04T14:31:35;4.25;;;0.50;;
9108;SDS011;4590;51.462;6.692;2022-07-04T14:34:00;2.65;;;1.30;;
9108;SDS011;4590;51.462;6.692;2022-07-04T14:36:26;1.50;;;0.60;;
9108;SDS011;4590;51.462;6.692;2022-07-04T14:38:51;1.23;;;0.60;;
9108;SDS011;4590;51.462;6.692;2022-07-04T14:41:16;2.75;;;0.60;;
9108;SDS011;4590;51.462;6.692;2022-07-04T14:43:42;2.42;;;0.45;;
9108;SDS011;4590;51.462;6.692;2022-07-04T14:46:08;1.65;;;0.60;;
9108;SDS011;4590;51.462;6.692;2022-07-04T14:48:35;1.17;;;0.50;;
9108;SDS011;4590;51.462;6.692;2022-07-04T14:51:01;2.03;;;0.60;;
9108;SDS011;4590;51.462;6.692;2022-07-04T14:53:26;2.30;;;0.60;;
9108;SDS011;4590;51.462;6.692;2022-07-04T14:55:52;2.58;;;0.60;;
9108;SDS011;4590;51.462;6.692;2022-07-04T14:58:17;2.47;;;1.23;;
9108;SDS011;4590;51.462;6.692;2022-07-04T15:00:43;1.77;;;0.40;;
9108;SDS011;4590;51.462;6.692;2022-07-04T15:03:08;1.02;;;0.50;;
9108;SDS011;4590;51.462;6.692;2022-07-04T15:05:34;2.33;;;0.60;;
9108;SDS011;4590;51.462;6.692;2022-07-04T15:07:59;2.70;;;0.57;;
9108;SDS011;4590;51.462;6.692;2022-07-04T15:10:24;1.50;;;0.60;;
9108;SDS011;4590;51.462;6.692;2022-07-04T15:12:49;1.75;;;0.43;;
9108;SDS011;4590;51.462;6.692;2022-07-04T15:15:15;1.60;;;0.60;;
9108;SDS011;4590;51.462;6.692;2022-07-04T15:17:40;2.97;;;0.70;;
9108;SDS011;4590;51.462;6.692;2022-07-04T15:20:06;1.55;;;0.60;;
9108;SDS011;4590;51.462;6.692;2022-07-04T15:22:51;2.55;;;0.60;;
9108;SDS011;4590;51.462;6.692;2022-07-04T15:25:35;1.83;;;0.50;;
9108;SDS011;4590;51.462;6.692;2022-07-04T15:28:00;2.63;;;0.50;;
9108;SDS011;4590;51.462;6.692;2022-07-04T15:30:25;2.00;;;0.63;;
9108;SDS011;4590;51.462;6.692;2022-07-04T15:32:51;2.03;;;0.65;;
9108;SDS011;4590;51.462;6.692;2022-07-04T15:35:16;1.60;;;0.68;;
9108;SDS011;4590;51.462;6.692;2022-07-04T15:37:41;1.20;;;0.40;;
9108;SDS011;4590;51.462;6.692;2022-07-04T15:40:07;1.30;;;0.70;;
9108;SDS011;4590;51.462;6.692;2022-07-04T15:42:33;1.88;;;0.70;;
9108;SDS011;4590;51.462;6.692;2022-07-04T15:44:58;1.58;;;0.65;;
9108;SDS011;4590;51.462;6.692;2022-07-04T15:47:23;2.08;;;0.80;;
9108;SDS011;4590;51.462;6.692;2022-07-04T15:49:48;2.15;;;0.70;;
9108;SDS011;4590;51.462;6.692;2022-07-04T15:52:14;1.98;;;0.70;;
9108;SDS011;4590;51.462;6.692;2022-07-04T15:54:39;2.72;;;0.70;;
9108;SDS011;4590;51.462;6.692;2022-07-04T15:57:04;2.78;;;0.70;;
9108;SDS011;4590;51.462;6.692;2022-07-04T15:59:31;2.42;;;0.70;;
9108;SDS011;4590;51.462;6.692;2022-07-04T16:01:56;2.55;;;0.98;;
9108;SDS011;4590;51.462;6.692;2022-07-04T16:04:22;2.15;;;0.68;;
9108;SDS011;4590;51.462;6.692;2022-07-04T16:06:47;1.00;;;0.65;;
9108;SDS011;4590;51.462;6.692;2022-07-04T16:09:12;2.00;;;0.60;;
9108;SDS011;4590;51.462;6.692;2022-07-04T16:11:38;2.35;;;0.60;;
9108;SDS011;4590;51.462;6.692;2022-07-04T16:14:03;1.42;;;0.77;;
9108;SDS011;4590;51.462;6.692;2022-07-04T16:16:29;2.83;;;0.80;;
9108;SDS011;4590;51.462;6.692;2022-07-04T16:18:55;1.95;;;0.70;;